Slag Pile, Wisconsin
Current Conditions -  °F | °C
As of 1:15 PM on Saturday 20 Dec 2014 (Local Time) from KRNH Reporting Station
Haze Haze  
Wind Chill: 23°   Ceiling: 1100
Heat Index: 31°   Visibility: 4mi
Dew Point: 29°   Wind: 9mph
Humidity: 92%   Direction: 160°SSE
Pressure: 30.13"   Gusts: NA
Location:  44.9511°N, 92.2794°W
Report Text: KRNH 201915Z AUTO 16008KT 4SM BR OVC011 00/M02 A3013 RMK AO2 T10051017
Loading
Personal Weather Stations






























Interactive Weather Map New forecast layout! Learn more

10-Day Weather Forecast

Advertisements
Track Severe Weather on mobile